createdAt,value
2022-09-25T00:01:16.919Z,11.70
2022-09-25T00:03:44.254Z,13.65
2022-09-25T00:06:20.073Z,13.68
2022-09-25T00:08:47.482Z,13.70
2022-09-25T00:11:17.851Z,12.48
2022-09-25T00:13:46.014Z,13.80
2022-09-25T00:16:26.931Z,12.85
2022-09-25T00:19:15.288Z,12.35
2022-09-25T00:21:43.381Z,14.48
2022-09-25T00:24:12.706Z,14.00
2022-09-25T00:29:15.772Z,10.05
2022-09-25T00:31:42.800Z,11.13
2022-09-25T00:34:11.031Z,11.85
2022-09-25T00:36:38.848Z,9.90
2022-09-25T00:39:06.065Z,11.23
2022-09-25T00:41:33.618Z,11.50
2022-09-25T00:44:03.336Z,10.70
2022-09-25T00:46:34.424Z,12.18
2022-09-25T00:49:23.847Z,12.35
2022-09-25T00:54:52.714Z,11.30
2022-09-25T00:57:26.083Z,12.20
2022-09-25T00:59:59.993Z,10.98
2022-09-25T01:02:35.231Z,10.45
2022-09-25T01:05:14.099Z,11.25
2022-09-25T01:07:45.699Z,18.75
2022-09-25T01:10:14.202Z,20.98
2022-09-25T01:12:44.622Z,16.00
2022-09-25T01:15:14.804Z,14.30
2022-09-25T01:18:09.623Z,10.95
2022-09-25T01:21:09.022Z,18.25
2022-09-25T01:27:18.484Z,34.65
2022-09-25T01:30:05.937Z,32.45
2022-09-25T01:33:07.101Z,32.28
2022-09-25T01:36:16.457Z,22.98
2022-09-25T01:41:44.487Z,15.95
2022-09-25T01:44:22.814Z,14.57
2022-09-25T01:46:53.462Z,13.43
2022-09-25T01:49:31.853Z,11.55
2022-09-25T01:52:00.858Z,12.07
2022-09-25T01:54:48.392Z,10.30
2022-09-25T01:57:34.594Z,11.20
2022-09-25T02:00:11.075Z,11.38
2022-09-25T02:03:05.704Z,8.30
2022-09-25T02:05:52.062Z,9.32
2022-09-25T02:08:28.512Z,9.13
2022-09-25T02:11:01.559Z,6.95
2022-09-25T02:13:47.235Z,6.90
2022-09-25T02:16:22.555Z,6.75
2022-09-25T02:19:08.483Z,7.80
2022-09-25T02:21:38.300Z,9.27
2022-09-25T02:24:33.222Z,8.00
2022-09-25T02:27:00.379Z,10.73
2022-09-25T02:29:27.504Z,11.55
2022-09-25T02:32:04.325Z,11.73
2022-09-25T02:34:32.521Z,12.07
2022-09-25T02:36:59.706Z,12.55
2022-09-25T02:39:29.971Z,9.98
2022-09-25T02:42:28.102Z,12.98
2022-09-25T02:45:28.995Z,11.15
2022-09-25T02:48:01.690Z,12.60
2022-09-25T02:50:47.212Z,12.73
2022-09-25T02:53:52.286Z,15.15
2022-09-25T02:56:32.637Z,14.90
2022-09-25T02:59:15.041Z,13.82
2022-09-25T03:01:43.458Z,12.63
2022-09-25T03:04:10.991Z,14.82
2022-09-25T03:06:39.165Z,17.23
2022-09-25T03:09:08.355Z,12.50
2022-09-25T03:11:41.623Z,10.88
2022-09-25T03:14:09.387Z,9.55
2022-09-25T03:16:58.734Z,8.90
2022-09-25T03:21:55.144Z,9.05
2022-09-25T03:24:23.149Z,9.05
2022-09-25T03:26:50.878Z,10.27
2022-09-25T03:29:18.004Z,9.20
2022-09-25T03:31:45.270Z,7.28
2022-09-25T03:34:15.810Z,7.95
2022-09-25T03:36:46.645Z,7.72
2022-09-25T03:39:17.188Z,8.32
2022-09-25T03:41:44.577Z,7.93
2022-09-25T03:44:12.168Z,6.82
2022-09-25T03:46:39.607Z,7.18
2022-09-25T03:49:09.849Z,7.88
2022-09-25T03:51:38.287Z,13.38
2022-09-25T03:54:05.540Z,17.80
2022-09-25T03:56:32.846Z,14.50
2022-09-25T03:59:00.054Z,16.45
2022-09-25T04:01:28.263Z,15.18
2022-09-25T04:03:56.077Z,16.48
2022-09-25T04:06:25.758Z,14.35
2022-09-25T04:08:53.752Z,12.80
2022-09-25T04:11:23.858Z,11.95
2022-09-25T04:13:51.945Z,11.98
2022-09-25T04:16:20.411Z,11.30
2022-09-25T04:18:47.785Z,11.85
2022-09-25T04:21:16.269Z,10.43
2022-09-25T04:24:03.423Z,8.45
2022-09-25T04:26:31.730Z,9.18
2022-09-25T04:29:03.202Z,7.35
2022-09-25T04:31:31.270Z,7.07
2022-09-25T04:33:58.502Z,14.32
2022-09-25T04:36:25.547Z,21.77
2022-09-25T04:38:52.679Z,24.23
2022-09-25T04:41:19.893Z,19.58
2022-09-25T04:43:47.666Z,28.02
2022-09-25T04:46:20.984Z,26.58
2022-09-25T04:48:49.868Z,20.00
2022-09-25T04:51:16.978Z,14.52
2022-09-25T04:53:44.133Z,13.27
2022-09-25T04:56:15.571Z,9.32
2022-09-25T04:58:45.662Z,9.05
2022-09-25T05:01:12.901Z,11.05
2022-09-25T05:03:40.066Z,16.02
2022-09-25T05:06:07.240Z,27.55
2022-09-25T05:08:34.488Z,28.83
2022-09-25T05:11:03.271Z,30.52
2022-09-25T05:13:30.459Z,28.63
2022-09-25T05:15:57.576Z,21.23
2022-09-25T05:18:24.882Z,11.38
2022-09-25T05:20:53.606Z,9.95
2022-09-25T05:23:21.476Z,9.13
2022-09-25T05:25:54.709Z,9.20
2022-09-25T05:28:22.775Z,7.72
2022-09-25T05:30:50.366Z,8.48
2022-09-25T05:33:18.470Z,6.72
2022-09-25T05:35:46.237Z,8.23
2022-09-25T05:38:13.364Z,6.45
2022-09-25T05:40:40.489Z,7.75
2022-09-25T05:43:08.195Z,5.95
2022-09-25T05:45:35.415Z,5.68
2022-09-25T05:48:08.158Z,7.03
2022-09-25T05:50:35.709Z,7.93
2022-09-25T05:53:04.677Z,8.88
2022-09-25T05:55:31.988Z,9.88
2022-09-25T05:58:04.069Z,10.07
2022-09-25T06:00:32.636Z,9.68
2022-09-25T06:03:01.284Z,10.88
2022-09-25T06:05:29.358Z,9.93
2022-09-25T06:07:56.528Z,8.50
2022-09-25T06:10:27.464Z,11.25
2022-09-25T06:12:59.905Z,14.45
2022-09-25T06:15:36.749Z,13.02
2022-09-25T06:18:05.089Z,12.98
2022-09-25T06:20:32.364Z,11.83
2022-09-25T06:23:03.006Z,12.68
2022-09-25T06:25:35.814Z,11.93
2022-09-25T06:28:03.196Z,14.20
2022-09-25T06:30:33.859Z,14.00
2022-09-25T06:33:10.249Z,13.52
2022-09-25T06:35:45.421Z,11.98
2022-09-25T06:38:14.634Z,12.10
2022-09-25T06:40:42.433Z,13.05
2022-09-25T06:43:12.896Z,14.55
2022-09-25T06:45:41.467Z,14.95
2022-09-25T06:50:54.486Z,11.95
2022-09-25T06:53:24.798Z,12.95
2022-09-25T06:55:54.619Z,14.32
2022-09-25T06:58:23.297Z,15.73
2022-09-25T07:00:53.246Z,13.70
2022-09-25T07:03:39.392Z,16.63
2022-09-25T07:06:10.298Z,18.23
2022-09-25T07:08:38.351Z,22.48
2022-09-25T07:11:06.347Z,28.85
2022-09-25T07:13:35.542Z,27.52
2022-09-25T07:16:05.946Z,25.75
2022-09-25T07:18:33.931Z,29.33
2022-09-25T07:21:04.908Z,29.92
2022-09-25T07:23:33.116Z,27.77
2022-09-25T07:26:15.938Z,28.40
2022-09-25T07:28:43.989Z,31.83
2022-09-25T07:31:22.685Z,27.15
2022-09-25T07:33:50.040Z,25.75
2022-09-25T07:36:18.155Z,29.70
2022-09-25T07:38:52.618Z,20.35
2022-09-25T07:41:21.990Z,17.20
2022-09-25T07:46:45.413Z,14.55
2022-09-25T07:49:13.453Z,12.88
2022-09-25T07:51:40.727Z,12.15
2022-09-25T07:54:08.269Z,14.18
2022-09-25T07:56:37.438Z,9.45
2022-09-25T08:01:31.502Z,9.60
2022-09-25T08:03:58.874Z,12.35
2022-09-25T08:06:26.019Z,9.85
2022-09-25T08:08:53.193Z,11.93
2022-09-25T08:11:22.605Z,10.52
2022-09-25T08:13:49.737Z,14.50
2022-09-25T08:16:18.478Z,14.85
2022-09-25T08:18:46.881Z,11.75
2022-09-25T08:21:16.934Z,12.20
2022-09-25T08:23:52.876Z,10.18
2022-09-25T08:26:22.423Z,8.50
2022-09-25T08:28:51.363Z,8.25
2022-09-25T08:31:18.801Z,8.02
2022-09-25T08:33:47.855Z,7.85
2022-09-25T08:38:43.169Z,6.43
2022-09-25T08:41:16.341Z,5.45
2022-09-25T08:44:05.177Z,5.18
2022-09-25T08:50:19.870Z,5.13
2022-09-25T08:52:54.601Z,5.00
2022-09-25T08:55:50.261Z,5.80
2022-09-25T08:58:31.746Z,4.45
2022-09-25T09:01:07.360Z,3.78
2022-09-25T09:03:48.240Z,3.53
2022-09-25T09:06:17.973Z,3.10
2022-09-25T09:08:57.604Z,3.53
2022-09-25T09:11:37.582Z,2.95
2022-09-25T09:14:10.290Z,2.78
2022-09-25T09:17:07.073Z,3.80
2022-09-25T09:19:34.369Z,3.88
2022-09-25T09:22:13.437Z,2.38
2022-09-25T09:24:51.638Z,2.95
2022-09-25T09:28:05.789Z,3.05
2022-09-25T09:30:51.504Z,2.58
2022-09-25T09:33:38.538Z,2.95
2022-09-25T09:36:29.918Z,2.35
2022-09-25T09:39:39.828Z,2.60
2022-09-25T09:42:37.417Z,1.90
2022-09-25T09:45:56.207Z,2.42
2022-09-25T09:49:01.566Z,2.90
2022-09-25T09:51:38.338Z,2.70
2022-09-25T09:54:32.208Z,2.20
2022-09-25T09:57:02.879Z,1.85
2022-09-25T09:59:49.746Z,1.60
2022-09-25T10:02:32.369Z,2.42
2022-09-25T10:05:03.930Z,1.70
2022-09-25T10:07:35.815Z,2.20
2022-09-25T10:10:14.678Z,1.83
2022-09-25T10:15:32.042Z,2.20
2022-09-25T10:18:01.440Z,1.77
2022-09-25T10:20:52.582Z,2.75
2022-09-25T10:23:38.532Z,2.25
2022-09-25T10:26:30.233Z,2.33
2022-09-25T10:29:00.491Z,2.03
2022-09-25T10:31:40.029Z,1.42
2022-09-25T10:34:29.018Z,1.13
2022-09-25T10:36:56.207Z,2.03
2022-09-25T10:39:44.248Z,1.50
2022-09-25T10:42:41.040Z,1.30
2022-09-25T10:45:34.599Z,1.50
2022-09-25T10:48:40.953Z,1.70
2022-09-25T10:51:09.973Z,1.60
2022-09-25T10:53:37.474Z,0.90
2022-09-25T10:56:10.537Z,1.75
2022-09-25T10:58:54.268Z,1.70
2022-09-25T11:01:37.598Z,1.30
2022-09-25T11:04:27.715Z,1.08
2022-09-25T11:07:07.033Z,1.27
2022-09-25T11:09:41.815Z,1.60
2022-09-25T11:12:26.978Z,1.20
2022-09-25T11:15:00.867Z,1.15
2022-09-25T11:17:32.127Z,1.48
2022-09-25T11:20:28.798Z,1.73
2022-09-25T11:23:33.483Z,1.98
2022-09-25T11:26:37.685Z,2.20
2022-09-25T11:29:35.359Z,2.20
2022-09-25T11:32:15.663Z,1.80
2022-09-25T11:35:29.264Z,1.48
2022-09-25T11:39:06.677Z,1.40
2022-09-25T11:41:58.000Z,1.30
2022-09-25T11:44:56.772Z,1.33
2022-09-25T11:47:55.290Z,1.20
2022-09-25T11:54:17.923Z,1.67
2022-09-25T11:57:34.700Z,1.10
2022-09-25T12:00:15.304Z,1.40
2022-09-25T12:03:12.642Z,1.50
2022-09-25T12:05:42.414Z,1.48
2022-09-25T12:08:30.745Z,1.38
2022-09-25T12:11:03.759Z,1.27
2022-09-25T12:14:09.643Z,1.75
2022-09-25T12:17:03.223Z,1.70
2022-09-25T12:20:32.121Z,1.92
2022-09-25T12:23:26.817Z,1.77
2022-09-25T12:26:05.074Z,2.05
2022-09-25T12:28:43.638Z,1.80
2022-09-25T12:31:42.230Z,2.10
2022-09-25T12:37:26.808Z,1.33
2022-09-25T12:40:37.059Z,1.90
2022-09-25T12:43:32.902Z,1.70
2022-09-25T12:46:19.678Z,2.20
2022-09-25T12:49:32.790Z,1.40
2022-09-25T12:52:26.907Z,1.63
2022-09-25T12:55:06.190Z,1.92
2022-09-25T12:57:45.169Z,1.80
2022-09-25T13:00:27.533Z,1.83
2022-09-25T13:03:25.988Z,1.70
2022-09-25T13:06:11.171Z,1.48
2022-09-25T13:09:17.589Z,2.05
2022-09-25T13:12:17.108Z,2.38
2022-09-25T13:14:59.420Z,2.20
2022-09-25T13:17:26.649Z,2.42
2022-09-25T13:19:53.958Z,2.15
2022-09-25T13:22:24.367Z,2.60
2022-09-25T13:25:15.299Z,1.80
2022-09-25T13:27:46.005Z,1.60
2022-09-25T13:30:25.012Z,1.83
2022-09-25T13:32:55.529Z,1.58
2022-09-25T13:35:24.053Z,1.88
2022-09-25T13:37:54.632Z,3.22
2022-09-25T13:40:44.505Z,2.20
2022-09-25T13:43:28.548Z,3.78
2022-09-25T13:46:20.702Z,2.45
2022-09-25T13:48:57.112Z,2.00
2022-09-25T13:51:25.304Z,2.15
2022-09-25T13:53:59.556Z,1.55
2022-09-25T13:56:48.046Z,3.20
2022-09-25T13:59:15.499Z,1.73
2022-09-25T14:01:46.181Z,1.30
2022-09-25T14:04:18.883Z,1.55
2022-09-25T14:06:51.831Z,1.90
2022-09-25T14:09:24.150Z,1.83
2022-09-25T14:12:25.558Z,1.88
2022-09-25T14:15:27.634Z,1.85
2022-09-25T14:17:56.934Z,1.50
2022-09-25T14:20:31.757Z,2.60
2022-09-25T14:23:05.290Z,2.10
2022-09-25T14:25:39.862Z,2.42
2022-09-25T14:28:27.599Z,2.25
2022-09-25T14:31:15.968Z,2.47
2022-09-25T14:33:58.650Z,1.50
2022-09-25T14:36:49.670Z,2.30
2022-09-25T14:39:28.201Z,1.98
2022-09-25T14:42:25.558Z,1.92
2022-09-25T14:45:21.991Z,1.50
2022-09-25T14:47:54.833Z,1.88
2022-09-25T14:50:34.087Z,1.80
2022-09-25T14:53:07.687Z,2.00
2022-09-25T14:55:42.656Z,2.00
2022-09-25T14:58:15.624Z,1.65
2022-09-25T15:00:53.401Z,1.88
2022-09-25T15:03:29.566Z,1.45
2022-09-25T15:06:03.115Z,1.60
2022-09-25T15:08:39.209Z,1.70
2022-09-25T15:11:17.631Z,1.85
2022-09-25T15:13:45.576Z,2.53
2022-09-25T15:16:41.185Z,1.67
2022-09-25T15:19:41.151Z,2.05
2022-09-25T15:22:18.943Z,2.25
2022-09-25T15:24:54.247Z,1.20
2022-09-25T15:27:22.332Z,2.40
2022-09-25T15:29:50.467Z,1.93
2022-09-25T15:32:28.575Z,2.70
2022-09-25T15:35:32.010Z,2.35
2022-09-25T15:38:17.764Z,2.05
2022-09-25T15:40:55.413Z,2.28
2022-09-25T15:43:22.560Z,1.92
2022-09-25T15:46:08.035Z,2.25
2022-09-25T15:48:50.320Z,3.03
2022-09-25T15:51:22.451Z,2.47
2022-09-25T15:53:56.169Z,2.20
2022-09-25T15:56:43.637Z,3.78
2022-09-25T15:59:58.676Z,3.33
2022-09-25T16:02:51.240Z,3.95
2022-09-25T16:05:34.720Z,3.80
2022-09-25T16:08:24.984Z,8.68
2022-09-25T16:11:24.576Z,6.00
2022-09-25T16:14:11.589Z,2.60
2022-09-25T16:16:51.373Z,2.53
2022-09-25T16:19:24.496Z,2.70
2022-09-25T16:21:52.473Z,2.35
2022-09-25T16:24:29.126Z,1.97
2022-09-25T16:27:05.671Z,2.55
2022-09-25T16:29:38.684Z,2.03
2022-09-25T16:32:14.713Z,2.03
2022-09-25T16:35:00.638Z,2.40
2022-09-25T16:37:35.159Z,3.10
2022-09-25T16:40:18.156Z,3.92
2022-09-25T16:42:46.817Z,3.35
2022-09-25T16:45:17.764Z,3.03
2022-09-25T16:47:49.467Z,3.63
2022-09-25T16:50:19.479Z,3.03
2022-09-25T16:52:48.490Z,3.10
2022-09-25T16:55:28.247Z,3.78
2022-09-25T16:57:57.856Z,3.80
2022-09-25T17:00:29.145Z,6.93
2022-09-25T17:02:56.486Z,7.40
2022-09-25T17:05:30.428Z,4.70
2022-09-25T17:08:14.277Z,4.07
2022-09-25T17:10:41.625Z,5.80
2022-09-25T17:13:12.953Z,8.10
2022-09-25T17:15:41.449Z,9.35
2022-09-25T17:18:20.584Z,9.55
2022-09-25T17:20:53.168Z,5.32
2022-09-25T17:23:22.247Z,4.75
2022-09-25T17:28:28.069Z,3.30
2022-09-25T17:30:55.678Z,4.35
2022-09-25T17:33:23.332Z,4.30
2022-09-25T17:36:05.260Z,5.20
2022-09-25T17:38:33.538Z,4.75
2022-09-25T17:41:05.815Z,5.40
2022-09-25T17:43:33.777Z,4.30
2022-09-25T17:46:01.192Z,4.43
2022-09-25T17:48:31.222Z,4.30
2022-09-25T17:51:09.205Z,4.50
2022-09-25T17:53:36.242Z,3.70
2022-09-25T17:56:03.680Z,4.38
2022-09-25T17:58:31.518Z,4.65
2022-09-25T18:01:00.497Z,5.80
2022-09-25T18:05:58.706Z,4.32
2022-09-25T18:08:25.928Z,3.78
2022-09-25T18:10:58.034Z,4.50
2022-09-25T18:13:25.236Z,3.47
2022-09-25T18:15:59.599Z,4.70
2022-09-25T18:18:46.940Z,4.90
2022-09-25T18:21:32.700Z,4.63
2022-09-25T18:24:00.033Z,4.55
2022-09-25T18:26:31.316Z,8.60
2022-09-25T18:28:58.844Z,6.43
2022-09-25T18:31:26.080Z,6.35
2022-09-25T18:33:54.496Z,4.70
2022-09-25T18:36:22.296Z,4.38
2022-09-25T18:38:49.439Z,4.30
2022-09-25T18:41:16.713Z,4.53
2022-09-25T18:43:43.919Z,4.78
2022-09-25T18:46:11.211Z,3.55
2022-09-25T18:48:38.648Z,4.25
2022-09-25T18:51:06.588Z,3.85
2022-09-25T18:53:33.872Z,4.03
2022-09-25T18:56:01.234Z,4.55
2022-09-25T18:58:29.661Z,5.10
2022-09-25T19:00:58.975Z,4.55
2022-09-25T19:03:26.247Z,5.60
2022-09-25T19:05:59.404Z,3.60
2022-09-25T19:08:26.746Z,3.67
2022-09-25T19:10:53.993Z,4.03
2022-09-25T19:13:21.376Z,4.55
2022-09-25T19:15:49.054Z,7.72
2022-09-25T19:18:16.178Z,9.60
2022-09-25T19:20:55.148Z,6.05
2022-09-25T19:26:02.062Z,9.93
2022-09-25T19:28:32.868Z,6.05
2022-09-25T19:31:06.653Z,7.53
2022-09-25T19:33:36.578Z,7.35
2022-09-25T19:36:09.525Z,7.00
2022-09-25T19:38:39.440Z,8.20
2022-09-25T19:41:25.496Z,7.55
2022-09-25T19:43:58.386Z,7.53
2022-09-25T19:46:27.558Z,22.30
2022-09-25T19:48:55.178Z,17.23
2022-09-25T19:51:23.771Z,23.75
2022-09-25T19:53:52.132Z,25.25
2022-09-25T19:56:20.300Z,23.98
2022-09-25T19:58:50.101Z,18.67
2022-09-25T20:01:23.444Z,11.07
2022-09-25T20:03:50.817Z,9.50
2022-09-25T20:06:18.182Z,12.63
2022-09-25T20:08:45.398Z,13.85
2022-09-25T20:11:19.603Z,16.20
2022-09-25T20:13:50.279Z,14.30
2022-09-25T20:16:21.415Z,10.57
2022-09-25T20:18:52.201Z,9.75
2022-09-25T20:21:22.385Z,7.82
2022-09-25T20:23:55.920Z,4.38
2022-09-25T20:26:23.914Z,5.63
2022-09-25T20:28:55.502Z,5.10
2022-09-25T20:31:23.406Z,4.32
2022-09-25T20:33:50.951Z,4.22
2022-09-25T20:36:18.598Z,4.00
2022-09-25T20:38:52.586Z,5.05
2022-09-25T20:41:21.796Z,5.38
2022-09-25T20:43:54.890Z,4.82
2022-09-25T20:46:23.487Z,5.97
2022-09-25T20:48:54.888Z,6.78
2022-09-25T20:51:29.089Z,7.35
2022-09-25T20:54:03.041Z,6.53
2022-09-25T20:56:31.775Z,6.75
2022-09-25T20:59:00.141Z,7.45
2022-09-25T21:01:33.820Z,7.70
2022-09-25T21:04:03.815Z,9.32
2022-09-25T21:06:35.197Z,10.45
2022-09-25T21:09:08.095Z,8.27
2022-09-25T21:11:36.829Z,8.15
2022-09-25T21:14:04.145Z,7.88
2022-09-25T21:16:32.920Z,11.02
2022-09-25T21:19:04.034Z,10.52
2022-09-25T21:21:33.678Z,13.70
2022-09-25T21:24:01.768Z,11.60
2022-09-25T21:26:30.837Z,11.65
2022-09-25T21:31:31.751Z,11.63
2022-09-25T21:33:59.670Z,11.10
2022-09-25T21:36:28.418Z,8.60
2022-09-25T21:38:55.888Z,7.05
2022-09-25T21:41:25.566Z,8.77
2022-09-25T21:43:59.527Z,7.72
2022-09-25T21:46:28.036Z,7.80
2022-09-25T21:49:04.722Z,6.45
2022-09-25T21:51:36.646Z,7.13
2022-09-25T21:54:06.789Z,12.77
2022-09-25T21:56:34.393Z,15.35
2022-09-25T21:59:08.844Z,17.90
2022-09-25T22:01:39.039Z,17.17
2022-09-25T22:04:09.708Z,24.02
2022-09-25T22:06:41.451Z,11.32
2022-09-25T22:09:13.815Z,16.13
2022-09-25T22:11:42.140Z,19.08
2022-09-25T22:14:15.381Z,15.83
2022-09-25T22:16:46.289Z,16.88
2022-09-25T22:19:23.190Z,10.70
2022-09-25T22:21:53.076Z,11.70
2022-09-25T22:24:21.955Z,11.05
2022-09-25T22:26:51.114Z,10.75
2022-09-25T22:31:47.664Z,11.15
2022-09-25T22:34:23.263Z,12.05
2022-09-25T22:36:56.182Z,10.52
2022-09-25T22:39:25.209Z,11.77
2022-09-25T22:41:53.873Z,12.93
2022-09-25T22:44:21.706Z,12.52
2022-09-25T22:46:49.125Z,11.30
2022-09-25T22:49:16.677Z,10.77
2022-09-25T22:51:43.989Z,9.77
2022-09-25T22:54:13.861Z,14.93
2022-09-25T22:56:42.218Z,9.75
2022-09-25T22:59:15.544Z,10.90
2022-09-25T23:01:53.867Z,9.38
2022-09-25T23:04:23.594Z,9.30
2022-09-25T23:06:51.273Z,9.40
2022-09-25T23:09:25.242Z,8.70
2022-09-25T23:11:54.796Z,7.65
2022-09-25T23:14:25.479Z,9.48
2022-09-25T23:16:54.160Z,8.80
2022-09-25T23:19:22.632Z,9.23
2022-09-25T23:21:53.833Z,9.27
2022-09-25T23:24:22.195Z,13.43
2022-09-25T23:26:49.997Z,13.93
2022-09-25T23:29:19.469Z,11.98
2022-09-25T23:31:47.893Z,11.50
2022-09-25T23:34:17.690Z,10.57
2022-09-25T23:36:44.809Z,10.32
2022-09-25T23:39:18.198Z,10.85
2022-09-25T23:41:46.027Z,11.77
2022-09-25T23:44:13.190Z,9.23
2022-09-25T23:46:42.015Z,8.23
2022-09-25T23:49:10.363Z,8.95
2022-09-25T23:51:38.036Z,9.73
2022-09-25T23:54:06.027Z,8.57
2022-09-25T23:56:35.277Z,8.75
2022-09-25T23:59:03.953Z,8.43
